Time;durP1;ratioP1;P1;durP2;ratioP2;P2;SDS_P1;SDS_P2;PMS_P1;PMS_P2;Temp;Humidity;BMP_temperature;BMP_pressure;BME280_temperature;BME280_humidity;BME280_pressure;Samples;Min_cycle;Max_cycle;Signal;HPM_P1;HPM_P2
2023/08/11 00:01:39;;;;;;;8.70;5.30;;;;;;;19.94;72.89;101901.03;5053190;28;20025;-60
2023/08/11 00:04:06;;;;;;;8.57;5.72;;;;;;;19.99;72.61;101903.66;5035569;28;20420;-60
2023/08/11 00:06:31;;;;;;;8.55;5.90;;;;;;;20.00;73.09;101901.00;5053189;28;20415;-60
2023/08/11 00:08:56;;;;;;;9.35;5.78;;;;;;;19.92;72.78;101897.50;5053329;28;20067;-59
2023/08/11 00:11:22;;;;;;;12.55;5.63;;;;;;;19.92;72.97;101904.66;5052374;28;20048;-60
2023/08/11 00:13:49;;;;;;;7.90;5.55;;;;;;;19.89;72.75;101902.00;5052999;28;20056;-59
2023/08/11 00:16:15;;;;;;;11.07;5.85;;;;;;;19.86;73.03;101905.59;5053121;28;20029;-60
2023/08/11 00:18:40;;;;;;;10.45;5.60;;;;;;;19.86;73.10;101897.53;5053110;28;20021;-59
2023/08/11 00:21:06;;;;;;;8.43;5.82;;;;;;;19.79;73.48;101900.34;5053126;28;20067;-60
2023/08/11 00:23:31;;;;;;;8.13;5.80;;;;;;;19.81;73.12;101898.50;5052950;28;20025;-59
2023/08/11 00:25:57;;;;;;;6.82;5.35;;;;;;;19.80;73.33;101896.75;5053163;28;20033;-60
2023/08/11 00:28:23;;;;;;;8.05;5.60;;;;;;;19.75;73.25;101897.69;5053043;28;20383;-59
2023/08/11 00:30:51;;;;;;;10.48;5.63;;;;;;;19.73;73.16;101901.25;5052971;28;20056;-60
2023/08/11 00:33:18;;;;;;;10.65;6.05;;;;;;;19.69;73.45;101900.41;5052848;28;20029;-60
2023/08/11 00:35:44;;;;;;;10.95;6.10;;;;;;;19.62;73.80;101906.75;5052960;28;20040;-60
2023/08/11 00:38:10;;;;;;;8.15;5.50;;;;;;;19.59;73.86;101904.06;5052964;28;20024;-60
2023/08/11 00:40:36;;;;;;;9.57;5.50;;;;;;;19.55;74.12;101901.44;5052750;28;20053;-59
2023/08/11 00:43:02;;;;;;;7.55;5.47;;;;;;;19.42;74.48;101896.16;5053214;28;20382;-59
2023/08/11 00:45:28;;;;;;;8.73;5.20;;;;;;;19.39;74.77;101893.50;5052673;28;20029;-60
2023/08/11 00:47:53;;;;;;;12.63;6.65;;;;;;;19.42;75.06;101897.97;5051600;28;20059;-59
2023/08/11 00:50:19;;;;;;;8.60;5.88;;;;;;;19.39;74.73;101892.63;5052838;28;20057;-60
2023/08/11 00:52:45;;;;;;;8.75;5.50;;;;;;;19.35;75.23;101880.16;5052515;28;20483;-60
2023/08/11 00:55:12;;;;;;;11.52;5.85;;;;;;;19.31;75.05;101881.97;5052963;28;20040;-59
2023/08/11 00:57:38;;;;;;;9.90;6.00;;;;;;;19.25;74.77;101874.00;5052655;28;20036;-60
2023/08/11 01:00:14;;;;;;;10.18;5.95;;;;;;;19.26;75.37;101871.28;5052788;28;20022;-60
2023/08/11 01:02:42;;;;;;;10.88;6.55;;;;;;;19.24;75.39;101875.78;5052656;28;20073;-60
2023/08/11 01:05:09;;;;;;;8.75;5.95;;;;;;;19.26;75.34;101867.72;5051283;28;20072;-59
2023/08/11 01:07:58;;;;;;;10.10;6.20;;;;;;;19.23;75.27;101868.66;5051848;28;20059;-59
2023/08/11 01:10:39;;;;;;;11.05;6.25;;;;;;;19.21;74.97;101864.19;5052601;28;20035;-60
2023/08/11 01:13:19;;;;;;;11.10;6.63;;;;;;;19.29;74.74;101864.13;5052787;28;20055;-60
2023/08/11 01:15:58;;;;;;;10.55;6.45;;;;;;;19.31;74.66;101865.00;5052492;28;20108;-60
2023/08/11 01:18:24;;;;;;;9.30;6.38;;;;;;;19.26;74.90;101863.25;5052489;28;20478;-59
2023/08/11 01:20:58;;;;;;;12.95;6.80;;;;;;;19.20;75.15;101874.03;5052552;28;20040;-59
2023/08/11 01:23:24;;;;;;;9.60;6.65;;;;;;;19.10;74.58;101861.63;5055840;28;20150;-60
2023/08/11 01:25:51;;;;;;;8.85;6.50;;;;;;;19.05;75.54;101855.41;5056657;28;20028;-59
2023/08/11 01:28:17;;;;;;;9.52;6.63;;;;;;;18.97;75.29;101849.22;5056537;28;20029;-60
2023/08/11 01:30:42;;;;;;;11.88;6.93;;;;;;;18.85;75.80;101850.22;5056278;28;20390;-59
2023/08/11 01:33:08;;;;;;;8.95;6.22;;;;;;;18.74;76.62;101855.63;5056265;28;20036;-60
2023/08/11 01:35:33;;;;;;;9.63;6.40;;;;;;;18.63;77.44;101854.78;5056212;28;20033;-59
2023/08/11 01:37:59;;;;;;;13.07;7.60;;;;;;;18.59;77.88;101855.72;5056232;28;20029;-59
2023/08/11 01:40:26;;;;;;;13.25;8.05;;;;;;;18.62;77.54;101852.09;5056029;28;20020;-59
2023/08/11 01:42:53;;;;;;;12.52;7.93;;;;;;;18.58;77.34;101858.38;5056026;28;20025;-59
2023/08/11 01:45:19;;;;;;;10.02;7.05;;;;;;;18.61;77.40;101861.03;5055854;28;20024;-60
2023/08/11 01:47:46;;;;;;;14.20;8.07;;;;;;;18.66;77.32;101862.78;5055003;28;20060;-60
2023/08/11 01:50:13;;;;;;;10.00;6.80;;;;;;;18.76;76.52;101861.88;5055726;28;20035;-60
2023/08/11 01:52:45;;;;;;;10.23;7.40;;;;;;;18.86;76.35;101856.47;5055954;28;20355;-59
2023/08/11 01:55:12;;;;;;;13.05;8.18;;;;;;;18.80;76.65;101859.16;5056134;28;20100;-60
2023/08/11 01:57:38;;;;;;;13.15;8.55;;;;;;;18.75;76.60;101861.88;5056022;28;20151;-60
2023/08/11 02:00:10;;;;;;;12.38;7.82;;;;;;;18.75;76.77;101856.50;5055667;28;20040;-60
2023/08/11 02:02:39;;;;;;;11.07;8.27;;;;;;;18.81;76.61;101853.81;5055686;28;20124;-60
2023/08/11 02:05:08;;;;;;;12.00;7.55;;;;;;;18.77;76.20;101847.59;5055571;28;20092;-60
2023/08/11 02:07:35;;;;;;;11.13;7.65;;;;;;;18.83;76.23;101848.44;5055983;28;20394;-60
2023/08/11 02:10:02;;;;;;;11.43;8.10;;;;;;;18.85;75.99;101834.16;5055522;28;20024;-59
2023/08/11 02:12:27;;;;;;;12.63;7.57;;;;;;;18.82;75.42;101839.50;5055402;28;20394;-60
2023/08/11 02:14:53;;;;;;;10.82;7.93;;;;;;;18.86;75.57;101833.25;5055449;28;20036;-60
2023/08/11 02:17:19;;;;;;;15.13;7.97;;;;;;;18.74;75.69;101839.56;5055489;28;20409;-60
2023/08/11 02:19:45;;;;;;;11.05;8.32;;;;;;;18.63;75.97;101838.72;5055487;28;20025;-59
2023/08/11 02:22:11;;;;;;;12.68;8.23;;;;;;;18.58;76.55;101840.53;5055118;28;20036;-59
2023/08/11 02:24:36;;;;;;;14.35;9.38;;;;;;;18.63;77.05;101840.50;5020948;28;20068;-60
2023/08/11 02:27:01;;;;;;;12.27;8.77;;;;;;;18.67;76.65;101829.78;5055235;28;20039;-59
2023/08/11 02:29:27;;;;;;;12.38;8.00;;;;;;;18.61;76.13;101832.47;5055210;28;20033;-60
2023/08/11 02:31:52;;;;;;;12.68;8.10;;;;;;;18.65;76.32;101831.56;5055231;28;20049;-60
2023/08/11 02:34:18;;;;;;;12.65;8.70;;;;;;;18.62;76.40;101828.00;5053858;28;20505;-60
2023/08/11 02:36:43;;;;;;;13.32;9.15;;;;;;;18.67;76.48;101831.53;5055126;28;20075;-60
2023/08/11 02:39:09;;;;;;;10.48;8.13;;;;;;;18.65;76.32;101836.91;5053965;28;20055;-59
2023/08/11 02:41:36;;;;;;;12.45;8.65;;;;;;;18.55;76.10;101835.22;5054980;28;20029;-60
2023/08/11 02:44:02;;;;;;;15.75;8.68;;;;;;;18.48;76.84;101833.47;5054869;28;20029;-60
2023/08/11 02:46:27;;;;;;;11.15;8.60;;;;;;;18.42;77.05;101844.22;5054737;28;20036;-60
2023/08/11 02:48:53;;;;;;;11.52;8.52;;;;;;;18.34;77.13;101844.25;5054752;28;20029;-60
2023/08/11 02:51:19;;;;;;;14.20;8.05;;;;;;;18.25;77.79;101846.97;5054816;28;20115;-60
2023/08/11 02:53:44;;;;;;;14.13;8.82;;;;;;;18.14;77.94;101843.47;5054482;28;20032;-59
2023/08/11 02:56:15;;;;;;;10.40;8.48;;;;;;;18.07;78.35;101845.25;5053567;28;20033;-60
2023/08/11 02:58:43;;;;;;;12.93;8.43;;;;;;;17.98;78.78;101843.50;5054969;28;20048;-59
2023/08/11 03:01:08;;;;;;;13.20;8.32;;;;;;;18.05;78.93;101849.75;5054684;28;20036;-60
2023/08/11 03:03:34;;;;;;;12.13;8.52;;;;;;;18.02;78.79;101839.94;5036495;28;20048;-58
2023/08/11 03:05:59;;;;;;;15.27;8.07;;;;;;;18.05;78.59;101846.19;5054357;28;20036;-59
2023/08/11 03:08:25;;;;;;;13.73;8.75;;;;;;;18.08;78.90;101841.72;5054524;28;20025;-60
2023/08/11 03:10:50;;;;;;;11.35;8.43;;;;;;;17.96;78.87;101847.09;5054644;28;20040;-60
2023/08/11 03:13:16;;;;;;;13.63;8.63;;;;;;;18.00;78.97;101843.53;5036620;28;20103;-60
2023/08/11 03:15:43;;;;;;;11.88;8.23;;;;;;;17.99;78.30;101839.97;5054581;28;20126;-59
2023/08/11 03:18:11;;;;;;;12.75;8.88;;;;;;;18.00;79.09;101835.50;5054109;28;20112;-59
2023/08/11 03:20:36;;;;;;;12.10;8.07;;;;;;;18.00;78.85;101835.50;5054317;28;20116;-59
2023/08/11 03:23:04;;;;;;;12.50;8.95;;;;;;;17.93;78.73;101834.63;5054309;28;20116;-59
2023/08/11 03:25:30;;;;;;;11.30;8.27;;;;;;;17.90;78.67;101831.06;5036137;28;20033;-59
2023/08/11 03:27:56;;;;;;;13.98;8.70;;;;;;;17.84;78.93;101831.97;5054062;28;20029;-59
2023/08/11 03:30:22;;;;;;;13.80;8.30;;;;;;;17.80;79.20;101834.69;5053078;28;20036;-59
2023/08/11 03:32:48;;;;;;;10.23;8.38;;;;;;;17.76;79.14;101834.69;5053922;28;20032;-60
2023/08/11 03:35:13;;;;;;;12.90;8.45;;;;;;;17.66;79.32;101832.00;5053834;28;20383;-58
2023/08/11 03:37:39;;;;;;;11.10;8.85;;;;;;;17.55;79.87;101829.34;5054122;28;20053;-59
2023/08/11 03:40:12;;;;;;;11.77;8.07;;;;;;;17.54;80.13;101835.59;5053834;28;20455;-58
2023/08/11 03:42:38;;;;;;;12.43;8.50;;;;;;;17.53;80.11;101833.81;5053747;28;20032;-59
2023/08/11 03:45:04;;;;;;;14.18;8.30;;;;;;;17.53;80.19;101831.16;5053570;28;20040;-58
2023/08/11 03:47:31;;;;;;;12.48;8.38;;;;;;;17.49;80.53;101829.38;5053933;28;20025;-59
2023/08/11 03:49:56;;;;;;;11.32;8.70;;;;;;;17.56;80.32;101830.25;5053589;28;20032;-59
2023/08/11 03:52:21;;;;;;;13.27;9.25;;;;;;;17.55;80.74;101824.00;5053589;28;20029;-59
2023/08/11 03:54:47;;;;;;;14.15;9.32;;;;;;;17.64;80.87;101818.63;5053600;28;20374;-59
2023/08/11 03:57:12;;;;;;;13.73;10.00;;;;;;;17.67;80.54;101821.31;5053694;28;20032;-59
2023/08/11 03:59:38;;;;;;;14.57;9.90;;;;;;;17.70;80.50;101817.75;5053451;28;20025;-60
2023/08/11 04:02:03;;;;;;;13.70;9.57;;;;;;;17.71;80.17;101817.72;5053299;28;20132;-60
2023/08/11 04:04:29;;;;;;;12.18;9.60;;;;;;;17.71;80.31;101822.19;5053460;28;20029;-59
2023/08/11 04:06:54;;;;;;;13.70;10.35;;;;;;;17.74;80.65;101817.75;5053392;28;20071;-60
2023/08/11 04:09:20;;;;;;;12.93;9.73;;;;;;;17.67;80.67;101818.63;5052981;28;20059;-60
2023/08/11 04:11:45;;;;;;;11.55;8.60;;;;;;;17.63;79.80;101819.53;5053256;28;20044;-60
2023/08/11 04:14:10;;;;;;;15.10;10.55;;;;;;;17.60;80.55;101829.34;5052656;28;20037;-60
2023/08/11 04:16:36;;;;;;;14.05;9.98;;;;;;;17.62;80.83;101820.44;5052569;28;20029;-60
2023/08/11 04:19:02;;;;;;;12.90;9.68;;;;;;;17.61;80.37;101832.03;5052859;28;20020;-60
2023/08/11 04:21:27;;;;;;;11.48;10.00;;;;;;;17.66;80.59;101832.00;5035026;28;20474;-60
2023/08/11 04:23:53;;;;;;;11.38;8.57;;;;;;;17.65;80.25;101831.13;5052543;28;20018;-59
2023/08/11 04:26:19;;;;;;;11.45;8.85;;;;;;;17.61;79.64;101829.34;5052234;28;20482;-59
2023/08/11 04:28:44;;;;;;;12.13;9.60;;;;;;;17.60;80.20;101824.91;5052657;28;20082;-60
2023/08/11 04:31:10;;;;;;;14.50;9.88;;;;;;;17.58;80.22;101828.47;5034504;28;20028;-59
2023/08/11 04:33:35;;;;;;;13.68;9.88;;;;;;;17.55;80.25;101829.34;5052513;28;20385;-59
2023/08/11 04:36:02;;;;;;;13.85;9.88;;;;;;;17.55;80.53;101823.13;5052403;28;20033;-58
2023/08/11 04:38:30;;;;;;;11.50;9.30;;;;;;;17.48;80.94;101828.50;5052447;28;20471;-60
2023/08/11 04:40:57;;;;;;;15.90;9.57;;;;;;;17.38;81.17;101829.38;5034431;28;20052;-60
2023/08/11 04:43:22;;;;;;;13.32;9.70;;;;;;;17.41;81.57;101825.84;5052332;28;20052;-60
2023/08/11 04:45:49;;;;;;;13.95;10.38;;;;;;;17.35;81.70;101823.19;5052458;28;20148;-59
2023/08/11 04:48:15;;;;;;;13.50;10.00;;;;;;;17.39;82.07;101825.84;5052538;28;20037;-60
2023/08/11 04:50:40;;;;;;;16.00;10.75;;;;;;;17.37;82.65;101824.94;5052365;28;20108;-59
2023/08/11 04:53:06;;;;;;;13.45;9.77;;;;;;;17.44;82.34;101820.50;5052028;28;20344;-60
2023/08/11 04:55:31;;;;;;;15.73;10.15;;;;;;;17.44;82.09;101812.47;5052360;28;20079;-60
2023/08/11 04:57:59;;;;;;;20.13;11.05;;;;;;;17.48;82.56;101811.56;5055152;28;20101;-59
2023/08/11 05:00:25;;;;;;;13.95;9.52;;;;;;;17.62;82.22;101800.84;5056507;28;20033;-60
2023/08/11 05:02:52;;;;;;;13.80;10.52;;;;;;;17.63;81.98;101806.16;5056170;28;20041;-60
2023/08/11 05:05:19;;;;;;;18.63;11.10;;;;;;;17.67;82.23;101797.25;5056290;28;20056;-59
2023/08/11 05:07:45;;;;;;;21.73;11.02;;;;;;;17.61;82.25;101802.63;5038839;28;20025;-60
2023/08/11 05:10:11;;;;;;;17.33;10.93;;;;;;;17.70;82.27;101805.28;5056294;28;20021;-60
2023/08/11 05:12:37;;;;;;;16.30;11.10;;;;;;;17.73;82.56;101799.91;5056365;28;20445;-59
2023/08/11 05:15:03;;;;;;;19.17;10.52;;;;;;;17.76;82.24;101804.38;5056211;28;20029;-60
2023/08/11 05:17:30;;;;;;;18.98;10.50;;;;;;;17.78;82.04;101797.25;5038291;28;20033;-60
2023/08/11 05:19:56;;;;;;;16.35;11.18;;;;;;;17.78;82.56;101802.59;5038022;28;20029;-59
2023/08/11 05:22:22;;;;;;;16.70;11.30;;;;;;;17.85;82.74;101799.00;5056229;28;20028;-59
2023/08/11 05:24:47;;;;;;;14.98;11.00;;;;;;;17.89;82.20;101798.09;5055902;28;20033;-60
2023/08/11 05:27:14;;;;;;;17.40;11.27;;;;;;;17.98;82.04;101799.84;5056075;28;20033;-60
2023/08/11 05:29:40;;;;;;;14.15;10.48;;;;;;;18.01;82.35;101806.06;5038339;28;20037;-60
2023/08/11 05:32:05;;;;;;;19.13;11.77;;;;;;;17.93;83.12;101804.31;5055999;28;20486;-60
2023/08/11 05:34:31;;;;;;;18.88;11.40;;;;;;;17.99;nan;101802.53;5055855;28;20393;-60
2023/08/11 05:36:57;;;;;;;15.77;11.40;;;;;;;17.98;83.92;101798.03;5055759;28;20423;-59
2023/08/11 05:39:23;;;;;;;20.58;11.90;;;;;;;18.05;83.74;101796.25;5055763;28;20156;-59
2023/08/11 05:41:48;;;;;;;17.77;11.48;;;;;;;18.05;83.62;101798.03;5055731;28;20059;-59
2023/08/11 05:44:14;;;;;;;16.92;11.48;;;;;;;18.03;84.76;101795.38;5055798;28;20052;-59
2023/08/11 05:46:39;;;;;;;18.48;10.85;;;;;;;18.15;83.64;101792.63;5055443;28;20398;-59
2023/08/11 05:49:04;;;;;;;17.80;10.95;;;;;;;18.30;83.57;101783.63;5055655;28;20063;-59
2023/08/11 05:51:30;;;;;;;18.08;11.27;;;;;;;18.36;82.68;101798.75;5055402;28;20025;-59
2023/08/11 05:53:55;;;;;;;17.67;11.30;;;;;;;18.42;84.07;101796.03;5055500;28;20025;-59
2023/08/11 05:56:20;;;;;;;16.17;11.18;;;;;;;18.57;82.74;101797.72;5055440;28;20022;-60
2023/08/11 05:58:46;;;;;;;17.00;10.20;;;;;;;18.67;81.82;101789.63;5055612;28;20041;-60
2023/08/11 06:01:12;;;;;;;16.50;10.70;;;;;;;18.81;81.54;101791.34;5055348;28;20057;-59
2023/08/11 06:03:37;;;;;;;16.05;10.65;;;;;;;18.88;81.11;101799.28;5054923;28;20137;-59
2023/08/11 06:06:07;;;;;;;18.10;10.30;;;;;;;18.89;81.24;101793.03;5055311;28;20045;-60
2023/08/11 06:08:32;;;;;;;14.55;10.48;;;;;;;18.84;80.71;101788.59;5055225;28;20099;-60
2023/08/11 06:10:58;;;;;;;15.75;10.50;;;;;;;18.84;80.89;101786.81;5037354;28;20418;-60
2023/08/11 06:13:23;;;;;;;18.05;10.10;;;;;;;18.88;81.15;101796.59;5055081;28;20033;-59
2023/08/11 06:15:52;;;;;;;17.35;10.75;;;;;;;19.11;81.11;101795.53;5055130;28;20033;-60
2023/08/11 06:18:18;;;;;;;14.40;10.13;;;;;;;19.27;80.55;101795.38;5054923;28;20071;-59
2023/08/11 06:20:44;;;;;;;16.50;10.82;;;;;;;19.41;79.85;101792.53;5055282;28;20112;-60
2023/08/11 06:23:09;;;;;;;16.30;10.93;;;;;;;19.69;79.11;101801.19;5055078;28;20447;-59
2023/08/11 06:25:35;;;;;;;16.77;10.68;;;;;;;19.91;77.88;101793.78;5054874;28;20025;-59
2023/08/11 06:28:01;;;;;;;19.10;10.23;;;;;;;20.06;77.11;101803.41;5055108;28;20032;-60
2023/08/11 06:30:28;;;;;;;13.82;9.88;;;;;;;20.21;77.46;101789.81;5052956;28;20044;-60
2023/08/11 06:32:54;;;;;;;14.73;10.52;;;;;;;20.34;76.57;101795.88;5055064;28;20032;-60
2023/08/11 06:35:20;;;;;;;15.75;10.15;;;;;;;20.49;75.55;101793.00;5036808;28;20107;-60
2023/08/11 06:37:45;;;;;;;19.98;9.50;;;;;;;20.59;75.68;101788.34;5054967;28;20036;-60
2023/08/11 06:40:13;;;;;;;15.10;9.73;;;;;;;20.75;75.56;101797.06;5054603;28;20033;-60
2023/08/11 06:42:38;;;;;;;16.38;9.23;;;;;;;20.91;74.04;101797.72;5036738;28;20029;-60
2023/08/11 06:45:04;;;;;;;17.05;9.07;;;;;;;21.11;74.52;101802.72;5054470;28;20033;-60
2023/08/11 06:47:31;;;;;;;15.30;9.07;;;;;;;21.33;74.06;101800.59;5054499;28;20366;-59
2023/08/11 06:49:57;;;;;;;14.82;9.25;;;;;;;21.52;72.02;101801.13;5036293;28;20072;-60
2023/08/11 06:52:23;;;;;;;13.20;8.60;;;;;;;21.70;71.61;101801.63;5036362;28;20021;-60
2023/08/11 06:54:48;;;;;;;12.85;8.80;;;;;;;21.90;71.99;101817.38;5053047;28;20024;-59
2023/08/11 06:57:14;;;;;;;13.50;8.40;;;;;;;22.10;72.41;101825.03;5054345;28;20029;-60
2023/08/11 06:59:39;;;;;;;14.82;7.75;;;;;;;22.32;70.80;101820.09;5036405;28;20466;-60
2023/08/11 07:02:05;;;;;;;15.40;7.25;;;;;;;22.42;68.50;101831.53;5054093;28;20104;-60
2023/08/11 07:04:31;;;;;;;15.63;7.13;;;;;;;22.56;68.41;101820.44;5054475;28;20044;-59
2023/08/11 07:06:56;;;;;;;15.70;7.25;;;;;;;22.83;67.45;101811.72;5036052;28;20032;-59
2023/08/11 07:09:24;;;;;;;15.25;6.35;;;;;;;23.02;64.98;101806.75;5054215;28;20032;-59
2023/08/11 07:11:49;;;;;;;12.18;6.47;;;;;;;23.15;64.90;101815.41;5036238;28;20063;-59
2023/08/11 07:14:15;;;;;;;15.18;6.22;;;;;;;23.12;63.67;101818.19;5036237;28;20029;-60
2023/08/11 07:16:40;;;;;;;12.25;6.22;;;;;;;23.37;63.80;101815.72;5053947;28;20063;-60
2023/08/11 07:19:05;;;;;;;13.02;6.57;;;;;;;23.56;64.86;101811.63;5053692;28;20351;-60
2023/08/11 07:21:31;;;;;;;11.30;6.20;;;;;;;23.68;63.28;101813.09;5053379;28;20032;-60
2023/08/11 07:23:56;;;;;;;14.13;6.10;;;;;;;23.83;61.80;101817.19;5053661;28;20029;-60
2023/08/11 07:26:22;;;;;;;11.27;5.72;;;;;;;24.11;62.87;101818.16;5053722;28;20433;-59
2023/08/11 07:28:47;;;;;;;11.93;5.50;;;;;;;24.36;62.56;101818.25;5035676;28;20036;-60
2023/08/11 07:31:13;;;;;;;9.25;5.25;;;;;;;24.59;60.12;101814.88;5053986;28;20025;-60
2023/08/11 07:33:39;;;;;;;10.82;5.22;;;;;;;24.74;59.41;101817.06;5035606;28;20410;-60
2023/08/11 07:36:05;;;;;;;8.98;5.00;;;;;;;25.02;59.46;101818.00;5053473;28;20041;-60
2023/08/11 07:38:31;;;;;;;10.48;4.75;;;;;;;25.17;57.88;101817.47;5053516;28;20377;-60
2023/08/11 07:40:56;;;;;;;9.45;5.22;;;;;;;25.38;56.30;101816.72;5053376;28;20025;-60
2023/08/11 07:43:22;;;;;;;10.93;4.93;;;;;;;25.52;56.60;101818.03;5053449;28;20025;-60
2023/08/11 07:45:47;;;;;;;8.40;4.50;;;;;;;25.76;55.24;101813.56;5053336;28;20071;-59
2023/08/11 07:48:13;;;;;;;8.18;4.50;;;;;;;25.84;52.74;101815.09;5053333;28;20028;-60
2023/08/11 07:50:39;;;;;;;10.60;4.38;;;;;;;25.93;54.00;101819.28;5053426;28;20492;-60
2023/08/11 07:53:05;;;;;;;10.00;4.38;;;;;;;26.05;54.45;101831.47;5035410;28;20037;-59
2023/08/11 07:55:31;;;;;;;8.93;4.65;;;;;;;26.14;53.67;101828.41;5053223;28;20032;-60
2023/08/11 07:57:56;;;;;;;12.55;4.50;;;;;;;26.10;51.75;101827.63;5053254;28;20029;-60
2023/08/11 08:00:25;;;;;;;10.50;4.20;;;;;;;26.18;52.23;101830.06;5053008;28;20108;-60
2023/08/11 08:02:54;;;;;;;10.65;4.35;;;;;;;26.26;51.80;101824.34;5053100;28;20041;-60
2023/08/11 08:05:19;;;;;;;9.10;4.45;;;;;;;26.37;51.24;101832.91;5052871;28;20060;-60
2023/08/11 08:07:45;;;;;;;10.07;4.13;;;;;;;26.65;50.72;101821.88;5053024;28;20477;-60
2023/08/11 08:10:13;;;;;;;7.20;4.28;;;;;;;26.74;50.33;101824.22;5052795;28;20029;-60
2023/08/11 08:12:40;;;;;;;11.23;4.40;;;;;;;26.88;49.06;101832.66;5052938;28;20098;-60
2023/08/11 08:15:07;;;;;;;11.32;4.38;;;;;;;27.07;47.79;101823.75;5052864;28;20100;-60
2023/08/11 08:17:33;;;;;;;12.00;4.30;;;;;;;27.21;49.22;101822.25;5053025;28;20394;-60
2023/08/11 08:20:00;;;;;;;8.05;4.32;;;;;;;27.09;47.94;101820.06;5052567;28;20107;-60
2023/08/11 08:22:25;;;;;;;5.35;3.83;;;;;;;27.11;49.22;101818.16;5052952;28;20100;-60
2023/08/11 08:24:52;;;;;;;11.02;4.10;;;;;;;27.16;48.96;101810.72;5052646;28;20116;-59
2023/08/11 08:27:23;;;;;;;10.65;4.40;;;;;;;27.21;48.19;101805.97;5052625;28;20040;-60
2023/08/11 08:29:49;;;;;;;8.68;3.95;;;;;;;27.22;48.39;101814.97;5052788;28;20368;-59
2023/08/11 08:32:14;;;;;;;9.35;3.90;;;;;;;27.36;47.91;101817.09;5051733;28;20028;-60
2023/08/11 08:34:40;;;;;;;6.43;3.85;;;;;;;27.65;48.43;101818.50;5052547;28;20155;-59
2023/08/11 08:37:05;;;;;;;6.43;3.95;;;;;;;27.60;48.47;101818.72;5034674;28;20029;-60
2023/08/11 08:39:31;;;;;;;8.63;3.90;;;;;;;27.81;48.72;101827.75;5052612;28;20033;-60
2023/08/11 08:41:58;;;;;;;7.50;3.83;;;;;;;27.86;47.01;101824.81;5052755;28;20103;-60
2023/08/11 08:44:25;;;;;;;8.88;3.60;;;;;;;28.02;47.70;101817.75;5052540;28;20029;-61
2023/08/11 08:46:53;;;;;;;11.50;3.83;;;;;;;27.92;46.51;101816.38;5052348;28;20033;-60
2023/08/11 08:49:25;;;;;;;6.22;3.70;;;;;;;28.13;45.32;101819.94;5052637;28;20036;-61
2023/08/11 08:51:51;;;;;;;8.23;4.10;;;;;;;28.33;46.79;101824.44;5052275;28;20474;-60
2023/08/11 08:54:17;;;;;;;8.23;3.63;;;;;;;28.34;46.58;101823.47;5052490;28;20029;-60
2023/08/11 08:56:43;;;;;;;12.38;4.13;;;;;;;28.30;44.30;101821.84;5052121;28;20041;-61
2023/08/11 08:59:09;;;;;;;8.55;3.90;;;;;;;28.49;45.51;101817.34;5052439;28;20032;-60
2023/08/11 09:01:36;;;;;;;8.10;3.67;;;;;;;28.58;44.68;101821.44;5052703;28;20024;-60
2023/08/11 09:04:03;;;;;;;7.07;3.72;;;;;;;28.90;44.97;101814.38;5034120;28;20079;-60
2023/08/11 09:06:29;;;;;;;11.18;3.67;;;;;;;28.97;45.50;101823.16;5052530;28;20025;-60
2023/08/11 09:08:54;;;;;;;13.18;3.75;;;;;;;29.11;45.18;101809.72;5051002;28;20471;-60
2023/08/11 09:11:21;;;;;;;7.30;3.50;;;;;;;29.16;43.52;101816.69;5052654;28;20036;-60
2023/08/11 09:13:47;;;;;;;8.93;3.67;;;;;;;29.12;42.90;101811.47;5052170;28;20494;-59
2023/08/11 09:16:14;;;;;;;8.40;3.70;;;;;;;29.18;44.08;101817.47;5052355;28;20112;-61
2023/08/11 09:18:40;;;;;;;6.80;3.60;;;;;;;29.36;43.01;101807.47;5052158;28;20200;-60
2023/08/11 09:21:06;;;;;;;6.03;3.78;;;;;;;29.47;44.67;101817.81;5052307;28;20033;-60
2023/08/11 09:23:36;;;;;;;5.75;3.47;;;;;;;29.80;43.14;101817.84;5051912;28;20486;-60
2023/08/11 09:26:02;;;;;;;8.32;3.72;;;;;;;30.08;43.38;101809.03;5052074;28;20025;-60
2023/08/11 09:28:28;;;;;;;6.13;3.60;;;;;;;30.32;41.65;101809.56;5052396;28;20544;-61
2023/08/11 09:30:54;;;;;;;7.30;3.50;;;;;;;30.71;40.47;101807.31;5052174;28;20025;-61
2023/08/11 09:33:24;;;;;;;6.72;3.38;;;;;;;30.78;41.41;101806.88;5052148;28;20036;-60
2023/08/11 09:35:50;;;;;;;6.10;3.22;;;;;;;30.69;41.97;101805.56;5052013;28;20029;-61
2023/08/11 09:38:15;;;;;;;4.95;3.15;;;;;;;30.73;40.89;101803.56;5052391;28;20021;-60
2023/08/11 09:40:41;;;;;;;8.45;3.60;;;;;;;31.03;40.50;101795.41;5051780;28;20103;-60
2023/08/11 09:43:07;;;;;;;6.20;3.45;;;;;;;31.17;39.91;101800.00;5053081;28;20164;-61
2023/08/11 09:45:33;;;;;;;8.70;3.85;;;;;;;31.32;41.45;101796.41;5055793;28;20063;-61
2023/08/11 09:47:58;;;;;;;8.07;3.55;;;;;;;31.00;41.13;101801.03;5056063;28;20104;-60
2023/08/11 09:50:30;;;;;;;5.43;3.40;;;;;;;30.74;41.62;101804.44;5055432;28;20394;-60
2023/08/11 09:52:59;;;;;;;5.57;3.50;;;;;;;30.53;43.82;101796.50;5037974;28;20029;-60
2023/08/11 09:55:27;;;;;;;6.32;3.22;;;;;;;30.61;42.05;101805.13;5055828;28;20099;-60
2023/08/11 09:57:52;;;;;;;6.07;3.30;;;;;;;30.74;40.90;101801.72;5055346;28;20119;-60
2023/08/11 10:00:36;;;;;;;4.38;2.92;;;;;;;30.87;41.75;101800.00;5055496;28;20467;-61
2023/08/11 10:03:06;;;;;;;8.65;3.30;;;;;;;30.95;41.48;101803.16;5054906;28;20037;-60
2023/08/11 10:05:35;;;;;;;7.20;3.40;;;;;;;31.15;42.48;101797.38;5037475;28;20037;-60
2023/08/11 10:08:06;;;;;;;5.40;3.28;;;;;;;31.51;41.70;101797.97;5055357;28;20033;-59
2023/08/11 10:10:34;;;;;;;7.00;3.10;;;;;;;31.57;41.49;101798.50;5037431;28;20029;-60
2023/08/11 10:13:07;;;;;;;4.53;2.70;;;;;;;31.55;39.80;101803.16;5054072;28;20091;-60
2023/08/11 10:15:33;;;;;;;5.60;3.00;;;;;;;31.78;39.46;101801.72;5055448;28;20036;-60
2023/08/11 10:18:00;;;;;;;5.30;3.20;;;;;;;31.73;38.72;101813.91;5055011;28;20382;-60
2023/08/11 10:20:26;;;;;;;6.72;2.90;;;;;;;31.71;38.37;101796.75;5054924;28;20562;-60
2023/08/11 10:22:51;;;;;;;5.53;3.00;;;;;;;31.61;39.51;101799.19;5054682;28;20053;-60
2023/08/11 10:25:18;;;;;;;5.95;3.30;;;;;;;31.65;39.16;101790.69;5054768;28;20060;-61
2023/08/11 10:27:45;;;;;;;8.30;3.00;;;;;;;32.05;38.76;101795.50;5054821;28;20040;-60
2023/08/11 10:30:14;;;;;;;5.22;3.20;;;;;;;31.89;38.74;101795.59;5053701;28;20029;-60
2023/08/11 10:32:39;;;;;;;3.90;3.03;;;;;;;32.22;37.72;101789.81;5053527;28;20071;-61
2023/08/11 10:35:26;;;;;;;7.38;3.00;;;;;;;32.29;38.82;101793.91;5054559;28;20108;-61
2023/08/11 10:37:59;;;;;;;6.60;2.90;;;;;;;31.98;38.69;101791.38;5054819;28;20522;-61
2023/08/11 10:40:34;;;;;;;9.30;2.80;;;;;;;31.94;38.76;101778.91;5054509;28;20028;-60
2023/08/11 10:43:01;;;;;;;4.18;2.90;;;;;;;32.25;37.76;101784.16;5054592;28;20108;-60
2023/08/11 10:45:31;;;;;;;7.07;2.70;;;;;;;32.26;38.46;101785.91;5054581;28;20040;-61
2023/08/11 10:47:58;;;;;;;6.53;2.80;;;;;;;32.56;36.98;101791.22;5054830;28;20481;-60
2023/08/11 10:50:23;;;;;;;5.15;2.70;;;;;;;32.67;37.32;101787.75;5054618;28;20029;-61
2023/08/11 10:53:07;;;;;;;6.35;2.63;;;;;;;32.88;37.91;101782.69;5054480;28;20070;-61
2023/08/11 10:55:39;;;;;;;4.35;2.70;;;;;;;32.68;37.49;101784.06;5053689;28;20045;-60
2023/08/11 10:58:13;;;;;;;9.48;3.00;;;;;;;32.94;38.80;101790.53;5054442;28;20064;-61
2023/08/11 11:00:40;;;;;;;4.93;3.00;;;;;;;32.64;38.55;101788.84;5054354;28;20025;-61
2023/08/11 11:03:06;;;;;;;7.30;2.83;;;;;;;32.96;37.58;101788.53;5054041;28;20060;-60
2023/08/11 11:05:32;;;;;;;3.90;2.60;;;;;;;33.40;36.13;101792.78;5054181;28;20029;-61
2023/08/11 11:07:57;;;;;;;8.95;2.80;;;;;;;33.42;35.19;101787.22;5054089;28;20158;-60
2023/08/11 11:10:23;;;;;;;4.45;2.80;;;;;;;33.49;34.20;101775.75;5054491;28;20438;-59
2023/08/11 11:12:48;;;;;;;3.78;2.60;;;;;;;33.11;35.79;101782.03;5054004;28;20498;-60
2023/08/11 11:15:13;;;;;;;8.35;3.00;;;;;;;32.98;38.72;101786.59;5054099;28;20029;-61
2023/08/11 11:17:39;;;;;;;5.25;2.95;;;;;;;32.62;36.46;101777.13;5036115;28;20104;-61